sensor_id;sensor_type;location;lat;lon;timestamp;temperature;humidity
9497;DHT22;4786;51.270;4.456;2022-10-19T00:01:11;11.50;99.90
9497;DHT22;4786;51.270;4.456;2022-10-19T00:03:38;11.50;99.90
9497;DHT22;4786;51.270;4.456;2022-10-19T00:06:24;11.60;99.90
9497;DHT22;4786;51.270;4.456;2022-10-19T00:08:56;11.50;99.90
9497;DHT22;4786;51.270;4.456;2022-10-19T00:11:23;11.70;99.90
9497;DHT22;4786;51.270;4.456;2022-10-19T00:13:50;11.60;99.90
9497;DHT22;4786;51.270;4.456;2022-10-19T00:16:18;11.60;99.90
9497;DHT22;4786;51.270;4.456;2022-10-19T00:18:44;11.60;99.90
9497;DHT22;4786;51.270;4.456;2022-10-19T00:21:12;11.60;99.90
9497;DHT22;4786;51.270;4.456;2022-10-19T00:23:39;11.60;99.90
9497;DHT22;4786;51.270;4.456;2022-10-19T00:26:06;11.60;99.90
9497;DHT22;4786;51.270;4.456;2022-10-19T00:28:33;11.50;99.90
9497;DHT22;4786;51.270;4.456;2022-10-19T00:31:07;11.50;99.90
9497;DHT22;4786;51.270;4.456;2022-10-19T00:33:33;11.50;99.90
9497;DHT22;4786;51.270;4.456;2022-10-19T00:35:59;11.50;99.90
9497;DHT22;4786;51.270;4.456;2022-10-19T00:38:25;11.40;99.90
9497;DHT22;4786;51.270;4.456;2022-10-19T00:40:51;11.40;99.90
9497;DHT22;4786;51.270;4.456;2022-10-19T00:43:27;11.30;99.90
9497;DHT22;4786;51.270;4.456;2022-10-19T00:45:54;11.40;99.90
9497;DHT22;4786;51.270;4.456;2022-10-19T00:48:25;11.40;99.90
9497;DHT22;4786;51.270;4.456;2022-10-19T00:50:53;11.30;99.90
9497;DHT22;4786;51.270;4.456;2022-10-19T00:53:20;11.30;99.90
9497;DHT22;4786;51.270;4.456;2022-10-19T00:55:46;11.30;99.90
9497;DHT22;4786;51.270;4.456;2022-10-19T00:58:12;11.30;99.90
9497;DHT22;4786;51.270;4.456;2022-10-19T01:00:38;11.40;99.90
9497;DHT22;4786;51.270;4.456;2022-10-19T01:03:04;11.40;99.90
9497;DHT22;4786;51.270;4.456;2022-10-19T01:05:33;11.40;99.90
9497;DHT22;4786;51.270;4.456;2022-10-19T01:08:00;11.30;99.90
9497;DHT22;4786;51.270;4.456;2022-10-19T01:11:27;11.30;99.90
9497;DHT22;4786;51.270;4.456;2022-10-19T01:16:16;11.30;99.90
9497;DHT22;4786;51.270;4.456;2022-10-19T01:21:20;11.30;99.90
9497;DHT22;4786;51.270;4.456;2022-10-19T01:35:29;11.10;99.90
9497;DHT22;4786;51.270;4.456;2022-10-19T01:40:57;11.20;99.90
9497;DHT22;4786;51.270;4.456;2022-10-19T01:46:29;11.10;99.90
9497;DHT22;4786;51.270;4.456;2022-10-19T01:49:09;11.10;99.90
9497;DHT22;4786;51.270;4.456;2022-10-19T01:51:41;11.00;99.90
9497;DHT22;4786;51.270;4.456;2022-10-19T01:54:12;11.00;99.90
9497;DHT22;4786;51.270;4.456;2022-10-19T01:56:41;11.00;99.90
9497;DHT22;4786;51.270;4.456;2022-10-19T01:59:09;11.00;99.90
9497;DHT22;4786;51.270;4.456;2022-10-19T02:01:38;11.10;99.90
9497;DHT22;4786;51.270;4.456;2022-10-19T02:04:05;10.90;99.90
9497;DHT22;4786;51.270;4.456;2022-10-19T02:06:32;10.90;99.90
9497;DHT22;4786;51.270;4.456;2022-10-19T02:08:57;10.80;99.90
9497;DHT22;4786;51.270;4.456;2022-10-19T02:11:24;10.90;99.90
9497;DHT22;4786;51.270;4.456;2022-10-19T02:14:02;10.90;99.90
9497;DHT22;4786;51.270;4.456;2022-10-19T02:16:33;10.80;99.90
9497;DHT22;4786;51.270;4.456;2022-10-19T02:19:02;10.90;99.90
9497;DHT22;4786;51.270;4.456;2022-10-19T02:21:30;10.80;99.90
9497;DHT22;4786;51.270;4.456;2022-10-19T02:23:56;10.80;99.90
9497;DHT22;4786;51.270;4.456;2022-10-19T02:26:22;10.90;99.90
9497;DHT22;4786;51.270;4.456;2022-10-19T02:28:48;10.70;99.90
9497;DHT22;4786;51.270;4.456;2022-10-19T02:31:14;10.70;99.90
9497;DHT22;4786;51.270;4.456;2022-10-19T02:33:41;10.70;99.90
9497;DHT22;4786;51.270;4.456;2022-10-19T02:36:07;10.70;99.90
9497;DHT22;4786;51.270;4.456;2022-10-19T02:38:33;10.70;99.90
9497;DHT22;4786;51.270;4.456;2022-10-19T02:43:33;10.60;99.90
9497;DHT22;4786;51.270;4.456;2022-10-19T02:46:05;10.50;99.90
9497;DHT22;4786;51.270;4.456;2022-10-19T02:48:33;10.60;99.90
9497;DHT22;4786;51.270;4.456;2022-10-19T02:51:00;10.60;99.90
9497;DHT22;4786;51.270;4.456;2022-10-19T02:53:27;10.60;99.90
9497;DHT22;4786;51.270;4.456;2022-10-19T02:55:54;10.50;99.90
9497;DHT22;4786;51.270;4.456;2022-10-19T02:58:21;10.50;99.90
9497;DHT22;4786;51.270;4.456;2022-10-19T03:00:47;10.60;99.90
9497;DHT22;4786;51.270;4.456;2022-10-19T03:03:13;10.50;99.90
9497;DHT22;4786;51.270;4.456;2022-10-19T03:05:39;10.50;99.90
9497;DHT22;4786;51.270;4.456;2022-10-19T03:08:05;10.60;99.90
9497;DHT22;4786;51.270;4.456;2022-10-19T03:10:31;10.70;99.90
9497;DHT22;4786;51.270;4.456;2022-10-19T03:12:57;10.60;99.90
9497;DHT22;4786;51.270;4.456;2022-10-19T03:15:23;10.60;99.90
9497;DHT22;4786;51.270;4.456;2022-10-19T03:17:53;10.70;99.90
9497;DHT22;4786;51.270;4.456;2022-10-19T03:20:19;10.70;99.90
9497;DHT22;4786;51.270;4.456;2022-10-19T03:22:46;10.70;99.90
9497;DHT22;4786;51.270;4.456;2022-10-19T03:25:12;10.80;99.90
9497;DHT22;4786;51.270;4.456;2022-10-19T03:27:38;10.60;99.90
9497;DHT22;4786;51.270;4.456;2022-10-19T03:30:04;10.60;99.90
9497;DHT22;4786;51.270;4.456;2022-10-19T03:32:30;10.60;99.90
9497;DHT22;4786;51.270;4.456;2022-10-19T03:34:56;10.60;99.90
9497;DHT22;4786;51.270;4.456;2022-10-19T03:37:23;10.70;99.90
9497;DHT22;4786;51.270;4.456;2022-10-19T03:39:49;10.60;99.90
9497;DHT22;4786;51.270;4.456;2022-10-19T03:42:15;10.70;99.90
9497;DHT22;4786;51.270;4.456;2022-10-19T03:44:41;10.70;99.90
9497;DHT22;4786;51.270;4.456;2022-10-19T03:47:08;10.70;99.90
9497;DHT22;4786;51.270;4.456;2022-10-19T03:49:34;10.70;99.90
9497;DHT22;4786;51.270;4.456;2022-10-19T03:52:00;10.60;99.90
9497;DHT22;4786;51.270;4.456;2022-10-19T03:54:26;10.60;99.90
9497;DHT22;4786;51.270;4.456;2022-10-19T03:56:53;10.60;99.90
9497;DHT22;4786;51.270;4.456;2022-10-19T03:59:19;10.60;99.90
9497;DHT22;4786;51.270;4.456;2022-10-19T04:01:46;10.80;99.90
9497;DHT22;4786;51.270;4.456;2022-10-19T04:04:15;10.50;99.90
9497;DHT22;4786;51.270;4.456;2022-10-19T04:06:43;10.40;99.90
9497;DHT22;4786;51.270;4.456;2022-10-19T04:09:11;10.50;99.90
9497;DHT22;4786;51.270;4.456;2022-10-19T04:11:38;10.50;99.90
9497;DHT22;4786;51.270;4.456;2022-10-19T04:14:04;10.50;99.90
9497;DHT22;4786;51.270;4.456;2022-10-19T04:16:30;10.60;99.90
9497;DHT22;4786;51.270;4.456;2022-10-19T04:18:57;10.50;99.90
9497;DHT22;4786;51.270;4.456;2022-10-19T04:21:24;10.50;99.90
9497;DHT22;4786;51.270;4.456;2022-10-19T04:23:52;10.50;99.90
9497;DHT22;4786;51.270;4.456;2022-10-19T04:26:19;10.50;99.90
9497;DHT22;4786;51.270;4.456;2022-10-19T04:28:45;10.50;99.90
9497;DHT22;4786;51.270;4.456;2022-10-19T04:31:11;10.20;99.90
9497;DHT22;4786;51.270;4.456;2022-10-19T04:33:37;10.30;99.90
9497;DHT22;4786;51.270;4.456;2022-10-19T04:36:05;10.30;99.90
9497;DHT22;4786;51.270;4.456;2022-10-19T04:38:32;10.30;99.90
9497;DHT22;4786;51.270;4.456;2022-10-19T04:41:21;10.20;99.90
9497;DHT22;4786;51.270;4.456;2022-10-19T04:43:48;10.30;99.90
9497;DHT22;4786;51.270;4.456;2022-10-19T04:46:18;10.30;99.90
9497;DHT22;4786;51.270;4.456;2022-10-19T04:48:46;10.30;99.90
9497;DHT22;4786;51.270;4.456;2022-10-19T04:51:13;10.20;99.90
9497;DHT22;4786;51.270;4.456;2022-10-19T04:53:39;10.20;99.90
9497;DHT22;4786;51.270;4.456;2022-10-19T04:56:07;10.10;99.90
9497;DHT22;4786;51.270;4.456;2022-10-19T04:58:34;10.10;99.90
9497;DHT22;4786;51.270;4.456;2022-10-19T05:01:27;10.00;99.90
9497;DHT22;4786;51.270;4.456;2022-10-19T05:03:55;10.10;99.90
9497;DHT22;4786;51.270;4.456;2022-10-19T05:06:21;10.00;99.90
9497;DHT22;4786;51.270;4.456;2022-10-19T05:08:47;10.00;99.90
9497;DHT22;4786;51.270;4.456;2022-10-19T05:11:15;10.00;99.90
9497;DHT22;4786;51.270;4.456;2022-10-19T05:13:42;10.00;99.90
9497;DHT22;4786;51.270;4.456;2022-10-19T05:16:11;10.00;99.90
9497;DHT22;4786;51.270;4.456;2022-10-19T05:18:38;10.00;99.90
9497;DHT22;4786;51.270;4.456;2022-10-19T05:21:11;9.90;99.90
9497;DHT22;4786;51.270;4.456;2022-10-19T05:23:38;10.00;99.90
9497;DHT22;4786;51.270;4.456;2022-10-19T05:26:07;9.90;99.90
9497;DHT22;4786;51.270;4.456;2022-10-19T05:28:33;9.80;99.90
9497;DHT22;4786;51.270;4.456;2022-10-19T05:31:15;9.80;99.90
9497;DHT22;4786;51.270;4.456;2022-10-19T05:33:42;9.90;99.90
9497;DHT22;4786;51.270;4.456;2022-10-19T05:36:20;9.90;99.90
9497;DHT22;4786;51.270;4.456;2022-10-19T05:38:48;9.90;99.90
9497;DHT22;4786;51.270;4.456;2022-10-19T05:41:14;10.00;99.90
9497;DHT22;4786;51.270;4.456;2022-10-19T05:43:41;9.90;99.90
9497;DHT22;4786;51.270;4.456;2022-10-19T05:46:09;9.90;99.90
9497;DHT22;4786;51.270;4.456;2022-10-19T05:48:36;9.90;99.90
9497;DHT22;4786;51.270;4.456;2022-10-19T05:51:04;9.90;99.90
9497;DHT22;4786;51.270;4.456;2022-10-19T05:53:31;10.00;99.90
9497;DHT22;4786;51.270;4.456;2022-10-19T05:55:58;9.90;99.90
9497;DHT22;4786;51.270;4.456;2022-10-19T05:58:24;10.00;99.90
9497;DHT22;4786;51.270;4.456;2022-10-19T06:00:55;10.10;99.90
9497;DHT22;4786;51.270;4.456;2022-10-19T06:03:21;10.10;99.90
9497;DHT22;4786;51.270;4.456;2022-10-19T06:05:52;9.90;99.90
9497;DHT22;4786;51.270;4.456;2022-10-19T06:08:18;9.90;99.90
9497;DHT22;4786;51.270;4.456;2022-10-19T06:10:45;9.90;99.90
9497;DHT22;4786;51.270;4.456;2022-10-19T06:13:12;9.90;99.90
9497;DHT22;4786;51.270;4.456;2022-10-19T06:15:38;9.80;99.90
9497;DHT22;4786;51.270;4.456;2022-10-19T06:18:11;9.90;99.90
9497;DHT22;4786;51.270;4.456;2022-10-19T06:20:39;9.90;99.90
9497;DHT22;4786;51.270;4.456;2022-10-19T06:23:05;9.80;99.90
9497;DHT22;4786;51.270;4.456;2022-10-19T06:25:32;9.90;99.90
9497;DHT22;4786;51.270;4.456;2022-10-19T06:27:58;9.80;99.90
9497;DHT22;4786;51.270;4.456;2022-10-19T06:30:24;9.90;99.90
9497;DHT22;4786;51.270;4.456;2022-10-19T06:32:50;9.90;99.90
9497;DHT22;4786;51.270;4.456;2022-10-19T06:35:16;10.00;99.90
9497;DHT22;4786;51.270;4.456;2022-10-19T06:37:42;10.00;99.90
9497;DHT22;4786;51.270;4.456;2022-10-19T06:40:09;10.00;99.90
9497;DHT22;4786;51.270;4.456;2022-10-19T06:42:35;10.00;99.90
9497;DHT22;4786;51.270;4.456;2022-10-19T06:45:07;10.10;99.90
9497;DHT22;4786;51.270;4.456;2022-10-19T06:47:34;10.10;99.90
9497;DHT22;4786;51.270;4.456;2022-10-19T06:50:00;10.00;99.90
9497;DHT22;4786;51.270;4.456;2022-10-19T06:52:27;10.20;99.90
9497;DHT22;4786;51.270;4.456;2022-10-19T06:54:52;10.00;99.90
9497;DHT22;4786;51.270;4.456;2022-10-19T06:57:18;9.90;99.90
9497;DHT22;4786;51.270;4.456;2022-10-19T06:59:44;10.00;99.90
9497;DHT22;4786;51.270;4.456;2022-10-19T07:02:10;10.30;99.90
9497;DHT22;4786;51.270;4.456;2022-10-19T07:04:36;10.20;99.90
9497;DHT22;4786;51.270;4.456;2022-10-19T07:07:02;10.10;99.90
9497;DHT22;4786;51.270;4.456;2022-10-19T07:09:27;10.00;99.90
9497;DHT22;4786;51.270;4.456;2022-10-19T07:11:54;10.10;99.90
9497;DHT22;4786;51.270;4.456;2022-10-19T07:14:19;10.10;99.90
9497;DHT22;4786;51.270;4.456;2022-10-19T07:16:48;10.20;99.90
9497;DHT22;4786;51.270;4.456;2022-10-19T07:19:14;10.30;99.90
9497;DHT22;4786;51.270;4.456;2022-10-19T07:21:40;10.30;99.90
9497;DHT22;4786;51.270;4.456;2022-10-19T07:24:07;10.40;99.90
9497;DHT22;4786;51.270;4.456;2022-10-19T07:26:33;10.30;99.90
9497;DHT22;4786;51.270;4.456;2022-10-19T07:28:59;10.20;99.90
9497;DHT22;4786;51.270;4.456;2022-10-19T07:31:26;10.30;99.90
9497;DHT22;4786;51.270;4.456;2022-10-19T07:33:57;10.40;99.90
9497;DHT22;4786;51.270;4.456;2022-10-19T07:36:24;10.40;99.90
9497;DHT22;4786;51.270;4.456;2022-10-19T07:38:51;10.50;99.90
9497;DHT22;4786;51.270;4.456;2022-10-19T07:41:19;10.50;99.90
9497;DHT22;4786;51.270;4.456;2022-10-19T07:43:46;10.50;99.90
9497;DHT22;4786;51.270;4.456;2022-10-19T07:46:19;10.60;99.90
9497;DHT22;4786;51.270;4.456;2022-10-19T07:48:45;10.70;99.90
9497;DHT22;4786;51.270;4.456;2022-10-19T07:51:12;10.80;99.90
9497;DHT22;4786;51.270;4.456;2022-10-19T07:53:39;10.80;99.90
9497;DHT22;4786;51.270;4.456;2022-10-19T07:58:33;11.10;99.90
9497;DHT22;4786;51.270;4.456;2022-10-19T08:01:04;11.40;99.90
9497;DHT22;4786;51.270;4.456;2022-10-19T08:03:30;11.80;99.90
9497;DHT22;4786;51.270;4.456;2022-10-19T08:06:04;12.30;99.90
9497;DHT22;4786;51.270;4.456;2022-10-19T08:08:30;12.70;99.90
9497;DHT22;4786;51.270;4.456;2022-10-19T08:10:56;12.70;99.90
9497;DHT22;4786;51.270;4.456;2022-10-19T08:13:23;12.90;99.90
9497;DHT22;4786;51.270;4.456;2022-10-19T08:15:49;13.00;99.90
9497;DHT22;4786;51.270;4.456;2022-10-19T08:18:15;13.00;99.90
9497;DHT22;4786;51.270;4.456;2022-10-19T08:20:43;12.90;99.90
9497;DHT22;4786;51.270;4.456;2022-10-19T08:23:09;13.20;99.90
9497;DHT22;4786;51.270;4.456;2022-10-19T08:25:35;13.60;99.90
9497;DHT22;4786;51.270;4.456;2022-10-19T08:28:02;14.30;99.90
9497;DHT22;4786;51.270;4.456;2022-10-19T08:30:28;15.10;99.90
9497;DHT22;4786;51.270;4.456;2022-10-19T08:32:54;15.50;99.90
9497;DHT22;4786;51.270;4.456;2022-10-19T08:35:19;15.80;99.90
9497;DHT22;4786;51.270;4.456;2022-10-19T08:37:45;15.80;99.90
9497;DHT22;4786;51.270;4.456;2022-10-19T08:40:27;15.60;99.90
9497;DHT22;4786;51.270;4.456;2022-10-19T08:43:12;15.40;99.90
9497;DHT22;4786;51.270;4.456;2022-10-19T08:45:49;15.30;99.90
9497;DHT22;4786;51.270;4.456;2022-10-19T08:48:20;15.30;99.90
9497;DHT22;4786;51.270;4.456;2022-10-19T08:50:47;15.20;99.90
9497;DHT22;4786;51.270;4.456;2022-10-19T08:53:50;15.00;99.90
9497;DHT22;4786;51.270;4.456;2022-10-19T08:56:33;14.90;99.90
9497;DHT22;4786;51.270;4.456;2022-10-19T09:04:23;14.60;99.90
9497;DHT22;4786;51.270;4.456;2022-10-19T09:06:58;14.60;99.90
9497;DHT22;4786;51.270;4.456;2022-10-19T09:09:30;14.50;99.90
9497;DHT22;4786;51.270;4.456;2022-10-19T09:12:03;14.40;99.90
9497;DHT22;4786;51.270;4.456;2022-10-19T09:14:54;14.50;99.90
9497;DHT22;4786;51.270;4.456;2022-10-19T09:17:22;14.60;99.90
9497;DHT22;4786;51.270;4.456;2022-10-19T09:19:50;14.60;99.90
9497;DHT22;4786;51.270;4.456;2022-10-19T09:22:24;14.60;99.90
9497;DHT22;4786;51.270;4.456;2022-10-19T09:24:54;14.50;99.90
9497;DHT22;4786;51.270;4.456;2022-10-19T09:27:24;14.50;99.90
9497;DHT22;4786;51.270;4.456;2022-10-19T09:29:58;14.60;99.90
9497;DHT22;4786;51.270;4.456;2022-10-19T09:32:36;14.70;99.90
9497;DHT22;4786;51.270;4.456;2022-10-19T09:37:43;14.90;99.90
9497;DHT22;4786;51.270;4.456;2022-10-19T09:40:18;14.90;99.90
9497;DHT22;4786;51.270;4.456;2022-10-19T09:42:44;14.90;99.90
9497;DHT22;4786;51.270;4.456;2022-10-19T09:45:19;15.00;99.90
9497;DHT22;4786;51.270;4.456;2022-10-19T09:47:47;15.10;99.90
9497;DHT22;4786;51.270;4.456;2022-10-19T09:50:17;15.10;99.90
9497;DHT22;4786;51.270;4.456;2022-10-19T09:52:45;15.10;99.90
9497;DHT22;4786;51.270;4.456;2022-10-19T09:57:44;15.20;99.90
9497;DHT22;4786;51.270;4.456;2022-10-19T10:00:30;15.30;99.90
9497;DHT22;4786;51.270;4.456;2022-10-19T10:02:56;15.30;99.90
9497;DHT22;4786;51.270;4.456;2022-10-19T10:05:36;15.40;99.90
9497;DHT22;4786;51.270;4.456;2022-10-19T10:08:03;15.50;99.90
9497;DHT22;4786;51.270;4.456;2022-10-19T10:10:36;15.70;99.90
9497;DHT22;4786;51.270;4.456;2022-10-19T10:13:03;15.80;99.90
9497;DHT22;4786;51.270;4.456;2022-10-19T10:15:40;15.90;99.90
9497;DHT22;4786;51.270;4.456;2022-10-19T10:18:11;16.00;99.90
9497;DHT22;4786;51.270;4.456;2022-10-19T10:23:29;16.30;99.90
9497;DHT22;4786;51.270;4.456;2022-10-19T10:25:58;16.20;99.90
9497;DHT22;4786;51.270;4.456;2022-10-19T10:28:26;16.20;99.90
9497;DHT22;4786;51.270;4.456;2022-10-19T10:31:02;16.10;99.90
9497;DHT22;4786;51.270;4.456;2022-10-19T10:33:30;16.00;99.90
9497;DHT22;4786;51.270;4.456;2022-10-19T10:36:02;16.20;99.90
9497;DHT22;4786;51.270;4.456;2022-10-19T10:38:43;16.20;99.90
9497;DHT22;4786;51.270;4.456;2022-10-19T10:41:19;16.30;99.90
9497;DHT22;4786;51.270;4.456;2022-10-19T10:43:59;16.30;99.90
9497;DHT22;4786;51.270;4.456;2022-10-19T10:46:41;16.50;99.90
9497;DHT22;4786;51.270;4.456;2022-10-19T10:49:19;16.70;99.90
9497;DHT22;4786;51.270;4.456;2022-10-19T10:51:49;16.80;99.90
9497;DHT22;4786;51.270;4.456;2022-10-19T10:54:21;16.80;99.90
9497;DHT22;4786;51.270;4.456;2022-10-19T10:57:11;16.90;99.90
9497;DHT22;4786;51.270;4.456;2022-10-19T11:00:14;17.00;99.90
9497;DHT22;4786;51.270;4.456;2022-10-19T11:05:30;17.30;99.90
9497;DHT22;4786;51.270;4.456;2022-10-19T11:08:17;17.40;99.90
9497;DHT22;4786;51.270;4.456;2022-10-19T11:10:57;17.50;99.90
9497;DHT22;4786;51.270;4.456;2022-10-19T11:16:15;17.70;99.90
9497;DHT22;4786;51.270;4.456;2022-10-19T11:19:00;17.70;99.90
9497;DHT22;4786;51.270;4.456;2022-10-19T11:21:42;17.70;99.90
9497;DHT22;4786;51.270;4.456;2022-10-19T11:41:06;17.20;99.90
9497;DHT22;4786;51.270;4.456;2022-10-19T11:51:57;17.20;99.90
9497;DHT22;4786;51.270;4.456;2022-10-19T11:59:49;17.30;99.90
9497;DHT22;4786;51.270;4.456;2022-10-19T12:04:59;17.10;99.90
9497;DHT22;4786;51.270;4.456;2022-10-19T12:07:54;16.90;99.90
9497;DHT22;4786;51.270;4.456;2022-10-19T12:10:27;16.90;99.90
9497;DHT22;4786;51.270;4.456;2022-10-19T12:13:07;16.80;99.90
9497;DHT22;4786;51.270;4.456;2022-10-19T12:15:40;16.80;99.90
9497;DHT22;4786;51.270;4.456;2022-10-19T12:20:57;16.80;99.90
9497;DHT22;4786;51.270;4.456;2022-10-19T12:23:37;16.80;99.90
9497;DHT22;4786;51.270;4.456;2022-10-19T12:26:10;16.80;99.90
9497;DHT22;4786;51.270;4.456;2022-10-19T12:28:41;16.80;99.90
9497;DHT22;4786;51.270;4.456;2022-10-19T12:31:11;16.70;99.90
9497;DHT22;4786;51.270;4.456;2022-10-19T12:38:58;16.60;99.90
9497;DHT22;4786;51.270;4.456;2022-10-19T12:41:33;16.60;99.90
9497;DHT22;4786;51.270;4.456;2022-10-19T12:47:20;16.60;99.90
9497;DHT22;4786;51.270;4.456;2022-10-19T12:52:15;16.70;99.90
9497;DHT22;4786;51.270;4.456;2022-10-19T12:54:42;16.70;99.90
9497;DHT22;4786;51.270;4.456;2022-10-19T12:57:26;16.80;99.90
9497;DHT22;4786;51.270;4.456;2022-10-19T13:00:02;16.80;99.90
9497;DHT22;4786;51.270;4.456;2022-10-19T13:02:32;16.80;99.90
9497;DHT22;4786;51.270;4.456;2022-10-19T13:04:59;16.70;99.90
9497;DHT22;4786;51.270;4.456;2022-10-19T13:07:25;16.80;99.90
9497;DHT22;4786;51.270;4.456;2022-10-19T13:09:59;16.70;99.90
9497;DHT22;4786;51.270;4.456;2022-10-19T13:12:27;16.80;99.90
9497;DHT22;4786;51.270;4.456;2022-10-19T13:15:03;16.80;99.90
9497;DHT22;4786;51.270;4.456;2022-10-19T13:17:47;16.80;99.90
9497;DHT22;4786;51.270;4.456;2022-10-19T13:22:48;16.80;99.90
9497;DHT22;4786;51.270;4.456;2022-10-19T13:25:27;16.80;99.90
9497;DHT22;4786;51.270;4.456;2022-10-19T13:36:10;16.80;99.90
9497;DHT22;4786;51.270;4.456;2022-10-19T13:49:34;17.00;99.90
9497;DHT22;4786;51.270;4.456;2022-10-19T14:08:46;16.80;99.90
9497;DHT22;4786;51.270;4.456;2022-10-19T14:13:41;16.80;99.90
9497;DHT22;4786;51.270;4.456;2022-10-19T14:16:18;16.70;99.90
9497;DHT22;4786;51.270;4.456;2022-10-19T14:18:52;16.70;99.90
9497;DHT22;4786;51.270;4.456;2022-10-19T14:21:29;16.70;99.90
9497;DHT22;4786;51.270;4.456;2022-10-19T14:23:55;16.70;99.90
9497;DHT22;4786;51.270;4.456;2022-10-19T14:26:22;16.70;99.90
9497;DHT22;4786;51.270;4.456;2022-10-19T14:28:54;16.70;99.90
9497;DHT22;4786;51.270;4.456;2022-10-19T14:31:23;16.70;99.90
9497;DHT22;4786;51.270;4.456;2022-10-19T14:33:51;16.60;99.90
9497;DHT22;4786;51.270;4.456;2022-10-19T14:36:24;16.60;99.90
9497;DHT22;4786;51.270;4.456;2022-10-19T14:38:55;16.60;99.90
9497;DHT22;4786;51.270;4.456;2022-10-19T14:41:30;16.60;99.90
9497;DHT22;4786;51.270;4.456;2022-10-19T14:43:58;16.50;99.90
9497;DHT22;4786;51.270;4.456;2022-10-19T14:46:33;16.50;99.90
9497;DHT22;4786;51.270;4.456;2022-10-19T14:49:01;16.50;99.90
9497;DHT22;4786;51.270;4.456;2022-10-19T14:54:30;16.40;99.90
9497;DHT22;4786;51.270;4.456;2022-10-19T15:02:44;16.30;99.90
9497;DHT22;4786;51.270;4.456;2022-10-19T15:05:19;16.30;99.90
9497;DHT22;4786;51.270;4.456;2022-10-19T15:07:46;16.20;99.90
9497;DHT22;4786;51.270;4.456;2022-10-19T15:10:17;16.20;99.90
9497;DHT22;4786;51.270;4.456;2022-10-19T15:12:44;16.10;99.90
9497;DHT22;4786;51.270;4.456;2022-10-19T15:15:21;16.20;99.90
9497;DHT22;4786;51.270;4.456;2022-10-19T15:17:54;16.10;99.90
9497;DHT22;4786;51.270;4.456;2022-10-19T15:22:53;16.10;99.90
9497;DHT22;4786;51.270;4.456;2022-10-19T15:25:41;16.10;99.90
9497;DHT22;4786;51.270;4.456;2022-10-19T15:28:30;16.20;99.90
9497;DHT22;4786;51.270;4.456;2022-10-19T15:31:04;16.10;99.90
9497;DHT22;4786;51.270;4.456;2022-10-19T15:33:39;16.00;99.90
9497;DHT22;4786;51.270;4.456;2022-10-19T15:36:13;16.00;99.90
9497;DHT22;4786;51.270;4.456;2022-10-19T15:38:44;16.00;99.90
9497;DHT22;4786;51.270;4.456;2022-10-19T15:41:24;15.90;99.90
9497;DHT22;4786;51.270;4.456;2022-10-19T15:43:52;15.90;99.90
9497;DHT22;4786;51.270;4.456;2022-10-19T15:48:51;15.80;99.90
9497;DHT22;4786;51.270;4.456;2022-10-19T15:51:39;15.80;99.90
9497;DHT22;4786;51.270;4.456;2022-10-19T15:54:07;15.80;99.90
9497;DHT22;4786;51.270;4.456;2022-10-19T15:56:38;15.70;99.90
9497;DHT22;4786;51.270;4.456;2022-10-19T15:59:16;15.70;99.90
9497;DHT22;4786;51.270;4.456;2022-10-19T16:01:43;15.70;99.90
9497;DHT22;4786;51.270;4.456;2022-10-19T16:04:10;15.60;99.90
9497;DHT22;4786;51.270;4.456;2022-10-19T16:06:39;15.60;99.90
9497;DHT22;4786;51.270;4.456;2022-10-19T16:09:06;15.60;99.90
9497;DHT22;4786;51.270;4.456;2022-10-19T16:11:32;15.50;99.90
9497;DHT22;4786;51.270;4.456;2022-10-19T16:13:59;15.40;99.90
9497;DHT22;4786;51.270;4.456;2022-10-19T16:16:27;15.40;99.90
9497;DHT22;4786;51.270;4.456;2022-10-19T16:18:54;15.40;99.90
9497;DHT22;4786;51.270;4.456;2022-10-19T16:21:25;15.20;99.90
9497;DHT22;4786;51.270;4.456;2022-10-19T16:23:52;15.20;99.90
9497;DHT22;4786;51.270;4.456;2022-10-19T16:26:18;15.20;99.90
9497;DHT22;4786;51.270;4.456;2022-10-19T16:28:44;15.30;99.90
9497;DHT22;4786;51.270;4.456;2022-10-19T16:31:10;15.20;99.90
9497;DHT22;4786;51.270;4.456;2022-10-19T16:33:36;15.20;99.90
9497;DHT22;4786;51.270;4.456;2022-10-19T16:36:04;15.20;99.90
9497;DHT22;4786;51.270;4.456;2022-10-19T16:38:31;15.10;99.90
9497;DHT22;4786;51.270;4.456;2022-10-19T16:41:05;15.10;99.90
9497;DHT22;4786;51.270;4.456;2022-10-19T16:43:32;14.90;99.90
9497;DHT22;4786;51.270;4.456;2022-10-19T16:45:58;14.90;99.90
9497;DHT22;4786;51.270;4.456;2022-10-19T16:48:24;14.90;99.90
9497;DHT22;4786;51.270;4.456;2022-10-19T16:53:33;14.80;99.90
9497;DHT22;4786;51.270;4.456;2022-10-19T16:56:08;14.70;99.90
9497;DHT22;4786;51.270;4.456;2022-10-19T16:58:35;14.70;99.90
9497;DHT22;4786;51.270;4.456;2022-10-19T17:01:08;14.70;99.90
9497;DHT22;4786;51.270;4.456;2022-10-19T17:03:34;14.60;99.90
9497;DHT22;4786;51.270;4.456;2022-10-19T17:06:08;14.60;99.90
9497;DHT22;4786;51.270;4.456;2022-10-19T17:08:34;14.60;99.90
9497;DHT22;4786;51.270;4.456;2022-10-19T17:11:18;14.60;99.90
9497;DHT22;4786;51.270;4.456;2022-10-19T17:13:48;14.60;99.90
9497;DHT22;4786;51.270;4.456;2022-10-19T17:16:15;14.50;99.90
9497;DHT22;4786;51.270;4.456;2022-10-19T17:18:41;14.50;99.90
9497;DHT22;4786;51.270;4.456;2022-10-19T17:21:19;14.50;99.90
9497;DHT22;4786;51.270;4.456;2022-10-19T17:23:46;14.40;99.90
9497;DHT22;4786;51.270;4.456;2022-10-19T17:26:12;14.40;99.90
9497;DHT22;4786;51.270;4.456;2022-10-19T17:28:39;14.40;99.90
9497;DHT22;4786;51.270;4.456;2022-10-19T17:31:07;14.30;99.90
9497;DHT22;4786;51.270;4.456;2022-10-19T17:33:34;14.30;99.90
9497;DHT22;4786;51.270;4.456;2022-10-19T17:36:15;14.20;99.90
9497;DHT22;4786;51.270;4.456;2022-10-19T17:38:41;14.20;99.90
9497;DHT22;4786;51.270;4.456;2022-10-19T17:41:12;14.20;99.90
9497;DHT22;4786;51.270;4.456;2022-10-19T17:43:40;14.30;99.90
9497;DHT22;4786;51.270;4.456;2022-10-19T17:46:07;14.20;99.90
9497;DHT22;4786;51.270;4.456;2022-10-19T17:48:36;14.20;99.90
9497;DHT22;4786;51.270;4.456;2022-10-19T17:51:15;14.10;99.90
9497;DHT22;4786;51.270;4.456;2022-10-19T17:53:42;14.10;99.90
9497;DHT22;4786;51.270;4.456;2022-10-19T17:56:11;14.10;99.90
9497;DHT22;4786;51.270;4.456;2022-10-19T17:58:37;14.00;99.90
9497;DHT22;4786;51.270;4.456;2022-10-19T18:01:03;14.00;99.90
9497;DHT22;4786;51.270;4.456;2022-10-19T18:03:31;13.90;99.90
9497;DHT22;4786;51.270;4.456;2022-10-19T18:06:11;13.90;99.90
9497;DHT22;4786;51.270;4.456;2022-10-19T18:08:40;13.90;99.90
9497;DHT22;4786;51.270;4.456;2022-10-19T18:11:14;14.00;99.90
9497;DHT22;4786;51.270;4.456;2022-10-19T18:13:41;13.90;99.90
9497;DHT22;4786;51.270;4.456;2022-10-19T18:16:11;13.80;99.90
9497;DHT22;4786;51.270;4.456;2022-10-19T18:18:39;13.80;99.90
9497;DHT22;4786;51.270;4.456;2022-10-19T18:21:08;13.80;99.90
9497;DHT22;4786;51.270;4.456;2022-10-19T18:23:35;13.80;99.90
9497;DHT22;4786;51.270;4.456;2022-10-19T18:26:04;13.80;99.90
9497;DHT22;4786;51.270;4.456;2022-10-19T18:28:30;13.80;99.90
9497;DHT22;4786;51.270;4.456;2022-10-19T18:31:10;13.70;99.90
9497;DHT22;4786;51.270;4.456;2022-10-19T18:33:37;13.80;99.90
9497;DHT22;4786;51.270;4.456;2022-10-19T18:36:05;13.70;99.90
9497;DHT22;4786;51.270;4.456;2022-10-19T18:38:31;13.70;99.90
9497;DHT22;4786;51.270;4.456;2022-10-19T18:41:04;13.70;99.90
9497;DHT22;4786;51.270;4.456;2022-10-19T18:43:30;13.70;99.90
9497;DHT22;4786;51.270;4.456;2022-10-19T18:45:58;13.60;99.90
9497;DHT22;4786;51.270;4.456;2022-10-19T18:48:25;13.70;99.90
9497;DHT22;4786;51.270;4.456;2022-10-19T18:50:51;13.60;99.90